This is the latest recevied weather packets stored in our database for station/object HS9UAC-10. If no packets are shown the sender has not sent any weather packets the latest 10 day(s).
| Time | Temp. | Humidity | Pressure | Rain* | Wind** | Luminosity | Snow |
|---|---|---|---|---|---|---|---|
| 1777816774 | 37.22° C | 61% | 1007 hPa | - | - | 0 W/m² | - |
| 1777815850 | 37.78° C | 60% | 1007 hPa | - | - | 0 W/m² | - |
| 1777814925 | 37.78° C | 61% | 1007 hPa | - | - | 0 W/m² | - |
| 1777814001 | 37.78° C | 61% | 1007 hPa | - | - | 0 W/m² | - |
| 1777813076 | 37.78° C | 60% | 1007 hPa | - | - | 0 W/m² | - |
| 1777812152 | 37.78° C | 59% | 1007 hPa | - | - | 0 W/m² | - |
| 1777811227 | 36.67° C | 64% | 1006 hPa | - | - | 0 W/m² | - |
| 1777810303 | 36.67° C | 64% | 1006 hPa | - | - | 0 W/m² | - |
| 1777809378 | 36.67° C | 63% | 1006 hPa | - | - | 0 W/m² | - |
| 1777808453 | 36.11° C | 66% | 1005 hPa | - | - | 0 W/m² | - |
| 1777807529 | 37.78° C | 58% | 1005 hPa | - | - | 0 W/m² | - |
| 1777806604 | 37.78° C | 55% | 1005 hPa | - | - | 0 W/m² | - |
| 1777805679 | 38.89° C | 51% | 1005 hPa | - | - | 0 W/m² | - |
| 1777804755 | 41.67° C | 44% | 1004 hPa | - | - | 0 W/m² | - |
| 1777803840 | 41.67° C | 43% | 1004 hPa | - | - | 0 W/m² | - |
| 1777802905 | 43.33° C | 40% | 1004 hPa | - | - | 0 W/m² | - |
| 1777801981 | 44.44° C | 37% | 1004 hPa | - | - | 0 W/m² | - |
| 1777801056 | 43.89° C | 37% | 1004 hPa | - | - | 0 W/m² | - |
| 1777800131 | 44.44° C | 37% | 1004 hPa | - | - | 0 W/m² | - |
| 1777799152 | 44.44° C | 37% | 1004 hPa | - | - | 0 W/m² | - |
| 1777798227 | 42.78° C | 39% | 1004 hPa | - | - | 0 W/m² | - |
| 1777797303 | 45° C | 37% | 1004 hPa | - | - | 0 W/m² | - |
| 1777796378 | 43.89° C | 39% | 1004 hPa | - | - | 0 W/m² | - |
| 1777795453 | 41.11° C | 44% | 1004 hPa | - | - | 0 W/m² | - |
| 1777794689 | 40° C | 49% | 1005 hPa | - | - | 0 W/m² | - |
* Rain since midnight (hover to see other rain measurements)
** Current wind speed in m/s (hover to see current wind gust speed)